createdAt,value
2023-04-14T00:00:31.840Z,8.00
2023-04-14T00:01:31.828Z,8.02
2023-04-14T00:02:31.925Z,8.02
2023-04-14T00:03:32.114Z,8.00
2023-04-14T00:04:31.903Z,8.00
2023-04-14T00:05:31.801Z,7.99
2023-04-14T00:06:31.783Z,7.99
2023-04-14T00:07:31.771Z,8.00
2023-04-14T00:08:31.759Z,8.02
2023-04-14T00:09:31.749Z,8.02
2023-04-14T00:10:31.733Z,8.02
2023-04-14T00:11:31.749Z,8.03
2023-04-14T00:12:31.718Z,8.04
2023-04-14T00:13:31.727Z,8.04
2023-04-14T00:14:31.702Z,8.04
2023-04-14T00:15:31.682Z,8.03
2023-04-14T00:16:31.799Z,8.06
2023-04-14T00:17:31.697Z,8.07
2023-04-14T00:18:31.678Z,8.06
2023-04-14T00:19:31.652Z,8.07
2023-04-14T00:20:31.652Z,8.06
2023-04-14T00:21:31.646Z,8.07
2023-04-14T00:22:31.601Z,8.06
2023-04-14T00:23:31.631Z,8.06
2023-04-14T00:24:31.593Z,8.06
2023-04-14T00:25:31.597Z,8.07
2023-04-14T00:26:31.575Z,8.06
2023-04-14T00:27:31.554Z,8.04
2023-04-14T00:28:31.556Z,8.03
2023-04-14T00:29:31.585Z,8.02
2023-04-14T00:30:31.569Z,7.99
2023-04-14T00:31:31.573Z,7.99
2023-04-14T00:32:31.518Z,7.96
2023-04-14T00:33:31.494Z,7.96
2023-04-14T00:34:31.486Z,7.96
2023-04-14T00:35:31.479Z,7.95
2023-04-14T00:36:31.455Z,7.95
2023-04-14T00:37:31.447Z,7.94
2023-04-14T00:38:31.484Z,7.91
2023-04-14T00:39:31.432Z,7.89
2023-04-14T00:40:31.418Z,7.86
2023-04-14T00:41:31.407Z,7.86
2023-04-14T00:42:31.411Z,7.85
2023-04-14T00:43:31.397Z,7.85
2023-04-14T00:44:31.402Z,7.84
2023-04-14T00:45:31.378Z,7.81
2023-04-14T00:46:31.384Z,7.77
2023-04-14T00:47:31.384Z,7.77
2023-04-14T00:48:31.337Z,7.74
2023-04-14T00:49:31.352Z,7.74
2023-04-14T00:50:31.313Z,7.71
2023-04-14T00:51:31.316Z,7.70
2023-04-14T00:52:31.294Z,7.67
2023-04-14T00:53:31.298Z,7.67
2023-04-14T00:54:31.274Z,7.63
2023-04-14T00:55:31.264Z,7.62
2023-04-14T00:56:31.242Z,7.60
2023-04-14T00:57:31.393Z,7.57
2023-04-14T00:58:31.228Z,7.60
2023-04-14T00:59:31.222Z,7.58
2023-04-14T01:00:31.237Z,7.57
2023-04-14T01:01:31.227Z,7.55
2023-04-14T01:02:31.390Z,7.54
2023-04-14T01:03:31.303Z,7.54
2023-04-14T01:04:40.760Z,7.54
2023-04-14T01:05:32.158Z,7.52
2023-04-14T01:06:31.156Z,7.51
2023-04-14T01:07:31.129Z,7.51
2023-04-14T01:08:31.124Z,7.50
2023-04-14T01:09:31.123Z,7.48
2023-04-14T01:10:31.108Z,7.47
2023-04-14T01:11:31.113Z,7.45
2023-04-14T01:12:31.089Z,7.45
2023-04-14T01:13:31.084Z,7.45
2023-04-14T01:14:31.084Z,7.44
2023-04-14T01:15:31.061Z,7.41
2023-04-14T01:16:31.172Z,7.39
2023-04-14T01:17:31.126Z,7.36
2023-04-14T01:18:31.013Z,7.36
2023-04-14T01:19:31.027Z,7.36
2023-04-14T01:20:31.001Z,7.33
2023-04-14T01:21:30.973Z,7.34
2023-04-14T01:22:30.990Z,7.33
2023-04-14T01:23:30.982Z,7.32
2023-04-14T01:24:30.949Z,7.29
2023-04-14T01:25:30.929Z,7.30
2023-04-14T01:26:30.939Z,7.30
2023-04-14T01:27:30.911Z,7.27
2023-04-14T01:28:31.061Z,7.26
2023-04-14T01:29:30.893Z,7.23
2023-04-14T01:30:30.901Z,7.23
2023-04-14T01:31:30.866Z,7.19
2023-04-14T01:32:30.898Z,7.18
2023-04-14T01:33:30.847Z,7.16
2023-04-14T01:34:30.812Z,7.18
2023-04-14T01:35:30.823Z,7.16
2023-04-14T01:36:30.806Z,7.12
2023-04-14T01:37:30.848Z,7.12
2023-04-14T01:38:30.789Z,7.12
2023-04-14T01:39:30.777Z,7.12
2023-04-14T01:40:30.775Z,7.09
2023-04-14T01:41:30.750Z,7.09
2023-04-14T01:42:30.755Z,7.07
2023-04-14T01:43:30.752Z,7.07
2023-04-14T01:44:30.727Z,7.04
2023-04-14T01:45:30.721Z,7.04
2023-04-14T01:46:30.707Z,7.01
2023-04-14T01:47:30.705Z,7.01
2023-04-14T01:48:30.690Z,6.99
2023-04-14T01:49:30.718Z,6.96
2023-04-14T01:50:30.646Z,6.93
2023-04-14T01:51:30.672Z,6.93
2023-04-14T01:52:30.665Z,6.91
2023-04-14T01:53:30.647Z,6.90
2023-04-14T01:54:30.607Z,6.90
2023-04-14T01:55:30.598Z,6.87
2023-04-14T01:56:30.603Z,6.87
2023-04-14T01:57:30.594Z,6.82
2023-04-14T01:58:30.564Z,6.83
2023-04-14T01:59:30.591Z,6.86
2023-04-14T02:00:30.558Z,6.83
2023-04-14T02:01:30.678Z,6.79
2023-04-14T02:02:30.674Z,6.75
2023-04-14T02:03:30.633Z,6.72
2023-04-14T02:04:30.511Z,6.73
2023-04-14T02:05:30.492Z,6.73
2023-04-14T02:06:30.494Z,6.72
2023-04-14T02:07:30.484Z,6.72
2023-04-14T02:08:30.492Z,6.72
2023-04-14T02:09:30.458Z,6.72
2023-04-14T02:10:30.459Z,6.71
2023-04-14T02:11:30.465Z,6.69
2023-04-14T02:12:30.442Z,6.68
2023-04-14T02:13:30.410Z,6.68
2023-04-14T02:14:30.407Z,6.65
2023-04-14T02:15:30.394Z,6.64
2023-04-14T02:16:30.406Z,6.57
2023-04-14T02:17:30.438Z,6.53
2023-04-14T02:18:30.361Z,6.50
2023-04-14T02:19:30.352Z,6.50
2023-04-14T02:20:30.370Z,6.50
2023-04-14T02:21:30.353Z,6.48
2023-04-14T02:22:30.323Z,6.48
2023-04-14T02:23:30.320Z,6.48
2023-04-14T02:24:30.299Z,6.48
2023-04-14T02:25:30.290Z,6.45
2023-04-14T02:26:30.276Z,6.42
2023-04-14T02:27:30.267Z,6.39
2023-04-14T02:28:30.347Z,6.36
2023-04-14T02:29:30.253Z,6.36
2023-04-14T02:30:30.221Z,6.39
2023-04-14T02:31:30.266Z,6.39
2023-04-14T02:32:30.251Z,6.36
2023-04-14T02:33:30.206Z,6.36
2023-04-14T02:34:30.199Z,6.33
2023-04-14T02:35:30.181Z,6.30
2023-04-14T02:36:30.158Z,6.32
2023-04-14T02:37:30.163Z,6.33
2023-04-14T02:38:30.148Z,6.32
2023-04-14T02:39:30.154Z,6.30
2023-04-14T02:40:30.149Z,6.28
2023-04-14T02:41:30.131Z,6.28
2023-04-14T02:42:30.117Z,6.27
2023-04-14T02:43:30.092Z,6.27
2023-04-14T02:44:30.073Z,6.25
2023-04-14T02:45:30.079Z,6.25
2023-04-14T02:46:30.105Z,6.21
2023-04-14T02:47:30.118Z,6.20
2023-04-14T02:48:30.036Z,6.21
2023-04-14T02:49:30.059Z,6.20
2023-04-14T02:50:30.018Z,6.17
2023-04-14T02:51:30.040Z,6.14
2023-04-14T02:52:30.011Z,6.16
2023-04-14T02:53:29.993Z,6.16
2023-04-14T02:54:29.997Z,6.14
2023-04-14T02:55:29.965Z,6.14
2023-04-14T02:56:29.963Z,6.11
2023-04-14T02:57:29.980Z,6.11
2023-04-14T02:58:29.955Z,6.11
2023-04-14T02:59:29.928Z,6.13
2023-04-14T03:00:29.938Z,6.11
2023-04-14T03:01:30.016Z,6.10
2023-04-14T03:02:30.014Z,6.08
2023-04-14T03:03:29.976Z,6.06
2023-04-14T03:04:29.938Z,6.08
2023-04-14T03:05:29.872Z,6.08
2023-04-14T03:06:29.887Z,6.10
2023-04-14T03:07:29.859Z,6.11
2023-04-14T03:08:29.829Z,6.11
2023-04-14T03:09:29.840Z,6.11
2023-04-14T03:10:29.832Z,6.13
2023-04-14T03:11:29.812Z,6.13
2023-04-14T03:12:29.794Z,6.13
2023-04-14T03:13:29.802Z,6.13
2023-04-14T03:14:29.785Z,6.13
2023-04-14T03:15:29.755Z,6.10
2023-04-14T03:16:29.866Z,6.10
2023-04-14T03:17:29.863Z,6.06
2023-04-14T03:18:29.744Z,6.06
2023-04-14T03:19:29.762Z,6.05
2023-04-14T03:20:29.714Z,6.05
2023-04-14T03:21:29.692Z,6.02
2023-04-14T03:22:29.683Z,6.01
2023-04-14T03:23:29.735Z,6.02
2023-04-14T03:24:29.670Z,6.01
2023-04-14T03:25:29.645Z,5.99
2023-04-14T03:26:29.635Z,5.98
2023-04-14T03:27:29.650Z,5.96
2023-04-14T03:28:29.623Z,5.96
2023-04-14T03:29:29.604Z,5.93
2023-04-14T03:30:29.607Z,5.92
2023-04-14T03:31:29.645Z,5.88
2023-04-14T03:32:29.589Z,5.85
2023-04-14T03:33:29.595Z,5.85
2023-04-14T03:34:29.566Z,5.83
2023-04-14T03:35:29.572Z,5.81
2023-04-14T03:36:29.552Z,5.81
2023-04-14T03:37:29.546Z,5.80
2023-04-14T03:38:29.526Z,5.78
2023-04-14T03:39:29.502Z,5.78
2023-04-14T03:40:29.489Z,5.77
2023-04-14T03:41:29.495Z,5.78
2023-04-14T03:42:29.498Z,5.78
2023-04-14T03:43:29.509Z,5.80
2023-04-14T03:44:29.450Z,5.81
2023-04-14T03:45:29.435Z,5.80
2023-04-14T03:46:29.487Z,5.80
2023-04-14T03:47:29.454Z,5.77
2023-04-14T03:48:29.401Z,5.78
2023-04-14T03:49:29.418Z,5.81
2023-04-14T03:50:29.375Z,5.80
2023-04-14T03:51:29.373Z,5.80
2023-04-14T03:52:29.392Z,5.80
2023-04-14T03:53:29.359Z,5.81
2023-04-14T03:54:29.362Z,5.83
2023-04-14T03:55:29.342Z,5.81
2023-04-14T03:56:29.320Z,5.81
2023-04-14T03:57:29.344Z,5.80
2023-04-14T03:58:29.293Z,5.80
2023-04-14T03:59:29.320Z,5.80
2023-04-14T04:00:29.284Z,5.81
2023-04-14T04:01:29.263Z,5.78
2023-04-14T04:02:29.380Z,5.78
2023-04-14T04:03:29.574Z,5.75
2023-04-14T04:04:29.299Z,5.73
2023-04-14T04:05:29.243Z,5.70
2023-04-14T04:06:29.587Z,5.70
2023-04-14T04:07:29.211Z,5.69
2023-04-14T04:08:29.188Z,5.70
2023-04-14T04:09:29.249Z,5.73
2023-04-14T04:10:29.188Z,5.70
2023-04-14T04:11:29.327Z,5.73
2023-04-14T04:12:29.188Z,5.69
2023-04-14T04:13:29.150Z,5.70
2023-04-14T04:14:29.157Z,5.69
2023-04-14T04:15:29.132Z,5.67
2023-04-14T04:16:29.140Z,5.67
2023-04-14T04:17:29.130Z,5.66
2023-04-14T04:18:29.093Z,5.66
2023-04-14T04:19:29.084Z,5.63
2023-04-14T04:20:29.347Z,5.62
2023-04-14T04:21:29.066Z,5.60
2023-04-14T04:22:29.037Z,5.59
2023-04-14T04:23:29.047Z,5.59
2023-04-14T04:24:29.032Z,5.56
2023-04-14T04:25:29.119Z,5.56
2023-04-14T04:26:29.008Z,5.52
2023-04-14T04:27:29.018Z,5.51
2023-04-14T04:28:28.987Z,5.51
2023-04-14T04:29:28.969Z,5.49
2023-04-14T04:30:28.981Z,5.48
2023-04-14T04:31:29.123Z,5.47
2023-04-14T04:32:29.070Z,5.45
2023-04-14T04:33:28.944Z,5.44
2023-04-14T04:34:28.918Z,5.42
2023-04-14T04:35:28.931Z,5.41
2023-04-14T04:36:28.922Z,5.38
2023-04-14T04:37:29.018Z,5.35
2023-04-14T04:38:28.902Z,5.37
2023-04-14T04:39:28.867Z,5.33
2023-04-14T04:40:28.860Z,5.35
2023-04-14T04:41:28.853Z,5.33
2023-04-14T04:42:28.830Z,5.32
2023-04-14T04:43:28.833Z,5.33
2023-04-14T04:44:28.832Z,5.33
2023-04-14T04:45:28.814Z,5.32
2023-04-14T04:46:28.820Z,5.30
2023-04-14T04:47:28.836Z,5.29
2023-04-14T04:48:28.761Z,5.27
2023-04-14T04:49:28.780Z,5.27
2023-04-14T04:50:28.791Z,5.26
2023-04-14T04:51:28.758Z,5.26
2023-04-14T04:52:28.750Z,5.26
2023-04-14T04:53:28.714Z,5.26
2023-04-14T04:54:28.721Z,5.26
2023-04-14T04:55:28.801Z,5.24
2023-04-14T04:56:28.679Z,5.24
2023-04-14T04:57:28.681Z,5.26
2023-04-14T04:58:28.665Z,5.26
2023-04-14T04:59:28.674Z,5.24
2023-04-14T05:00:28.659Z,5.24
2023-04-14T05:01:28.675Z,5.23
2023-04-14T05:02:28.728Z,5.22
2023-04-14T05:03:28.677Z,5.23
2023-04-14T05:04:28.622Z,5.23
2023-04-14T05:05:28.612Z,5.23
2023-04-14T05:06:28.624Z,5.20
2023-04-14T05:07:28.565Z,5.20
2023-04-14T05:08:28.576Z,5.22
2023-04-14T05:09:28.568Z,5.22
2023-04-14T05:10:28.640Z,5.20
2023-04-14T05:11:28.546Z,5.23
2023-04-14T05:12:28.517Z,5.23
2023-04-14T05:13:28.511Z,5.22
2023-04-14T05:14:28.509Z,5.22
2023-04-14T05:15:28.552Z,5.23
2023-04-14T05:16:28.492Z,5.24
2023-04-14T05:17:28.464Z,5.23
2023-04-14T05:18:28.461Z,5.26
2023-04-14T05:19:28.440Z,5.27
2023-04-14T05:20:28.428Z,5.30
2023-04-14T05:21:28.430Z,5.35
2023-04-14T05:22:28.431Z,5.35
2023-04-14T05:23:28.422Z,5.37
2023-04-14T05:24:28.403Z,5.40
2023-04-14T05:25:28.379Z,5.38
2023-04-14T05:26:48.684Z,5.40
2023-04-14T05:27:29.388Z,5.38
2023-04-14T05:28:28.352Z,5.38
2023-04-14T05:29:28.351Z,5.38
2023-04-14T05:30:28.324Z,5.38
2023-04-14T05:31:28.403Z,5.37
2023-04-14T05:32:29.191Z,5.38
2023-04-14T05:33:28.306Z,5.38
2023-04-14T05:34:28.294Z,5.37
2023-04-14T05:35:28.272Z,5.35
2023-04-14T05:36:28.271Z,5.37
2023-04-14T05:37:28.256Z,5.38
2023-04-14T05:38:28.261Z,5.38
2023-04-14T05:39:28.234Z,5.38
2023-04-14T05:40:28.240Z,5.37
2023-04-14T05:41:28.218Z,5.38
2023-04-14T05:42:28.265Z,5.38
2023-04-14T05:43:28.181Z,5.38
2023-04-14T05:44:28.236Z,5.40
2023-04-14T05:45:28.988Z,5.38
2023-04-14T05:46:28.243Z,5.38
2023-04-14T05:47:28.213Z,5.40
2023-04-14T05:48:28.150Z,5.42
2023-04-14T05:49:28.129Z,5.42
2023-04-14T05:50:28.129Z,5.44
2023-04-14T05:51:28.102Z,5.45
2023-04-14T05:52:28.126Z,5.45
2023-04-14T05:53:28.089Z,5.47
2023-04-14T05:54:28.075Z,5.49
2023-04-14T05:55:28.078Z,5.51
2023-04-14T05:56:28.325Z,5.52
2023-04-14T05:57:28.067Z,5.52
2023-04-14T05:58:28.056Z,5.55
2023-04-14T05:59:28.014Z,5.58
2023-04-14T06:00:28.018Z,5.59
2023-04-14T06:01:28.006Z,5.62
2023-04-14T06:02:28.151Z,5.62
2023-04-14T06:03:28.274Z,5.62
2023-04-14T06:04:28.037Z,5.63
2023-04-14T06:05:27.985Z,5.65
2023-04-14T06:06:27.962Z,5.67
2023-04-14T06:07:27.936Z,5.69
2023-04-14T06:08:27.932Z,5.69
2023-04-14T06:09:27.929Z,5.73
2023-04-14T06:10:27.923Z,5.75
2023-04-14T06:11:27.902Z,5.77
2023-04-14T06:12:28.671Z,5.80
2023-04-14T06:13:29.902Z,5.84
2023-04-14T06:14:27.875Z,5.88
2023-04-14T06:15:27.881Z,5.88
2023-04-14T06:16:27.888Z,5.92
2023-04-14T06:17:27.890Z,5.95
2023-04-14T06:18:27.843Z,5.98
2023-04-14T06:19:27.805Z,5.99
2023-04-14T06:20:28.524Z,6.02
2023-04-14T06:21:27.794Z,6.06
2023-04-14T06:22:27.785Z,6.06
2023-04-14T06:23:28.033Z,6.10
2023-04-14T06:24:27.753Z,6.13
2023-04-14T06:25:29.316Z,6.14
2023-04-14T06:26:27.752Z,6.16
2023-04-14T06:27:27.732Z,6.17
2023-04-14T06:28:27.985Z,6.20
2023-04-14T06:29:27.715Z,6.20
2023-04-14T06:30:28.058Z,6.24
2023-04-14T06:31:27.776Z,6.24
2023-04-14T06:32:27.707Z,6.25
2023-04-14T06:33:27.677Z,6.28
2023-04-14T06:34:27.648Z,6.28
2023-04-14T06:35:32.956Z,6.30
2023-04-14T06:36:29.656Z,6.32
2023-04-14T06:37:27.618Z,6.33
2023-04-14T06:38:28.884Z,6.33
2023-04-14T06:39:27.596Z,6.36
2023-04-14T06:40:27.611Z,6.36
2023-04-14T06:41:27.608Z,6.39
2023-04-14T06:42:27.653Z,6.40
2023-04-14T06:43:27.551Z,6.40
2023-04-14T06:44:27.549Z,6.42
2023-04-14T06:45:27.589Z,6.43
2023-04-14T06:46:27.952Z,6.46
2023-04-14T06:47:27.543Z,6.46
2023-04-14T06:48:27.516Z,6.48
2023-04-14T06:49:27.489Z,6.51
2023-04-14T06:50:27.484Z,6.53
2023-04-14T06:51:27.574Z,6.55
2023-04-14T06:52:27.474Z,6.57
2023-04-14T06:53:27.462Z,6.57
2023-04-14T06:54:27.447Z,6.61
2023-04-14T06:55:27.435Z,6.61
2023-04-14T06:56:27.425Z,6.64
2023-04-14T06:57:27.420Z,6.65
2023-04-14T06:58:27.446Z,6.69
2023-04-14T06:59:27.386Z,6.71
2023-04-14T07:00:27.399Z,6.73
2023-04-14T07:01:27.410Z,6.75
2023-04-14T07:02:27.505Z,6.78
2023-04-14T07:03:27.424Z,6.79
2023-04-14T07:04:27.376Z,6.78
2023-04-14T07:05:27.324Z,6.81
2023-04-14T07:06:27.328Z,6.82
2023-04-14T07:07:27.331Z,6.82
2023-04-14T07:08:27.284Z,6.83
2023-04-14T07:09:27.316Z,6.87
2023-04-14T07:10:27.289Z,6.90
2023-04-14T07:11:27.295Z,6.91
2023-04-14T07:12:27.254Z,6.93
2023-04-14T07:13:27.230Z,6.94
2023-04-14T07:14:27.320Z,6.97
2023-04-14T07:15:27.232Z,6.99
2023-04-14T07:16:27.260Z,6.99
2023-04-14T07:17:27.252Z,7.00
2023-04-14T07:18:27.180Z,7.00
2023-04-14T07:19:27.186Z,7.05
2023-04-14T07:20:27.225Z,7.08
2023-04-14T07:21:27.149Z,7.11
2023-04-14T07:22:27.152Z,7.15
2023-04-14T07:23:27.911Z,7.19
2023-04-14T07:24:27.122Z,7.23
2023-04-14T07:25:27.110Z,7.29
2023-04-14T07:26:27.095Z,7.33
2023-04-14T07:27:27.087Z,7.36
2023-04-14T07:28:28.591Z,7.37
2023-04-14T07:29:27.056Z,7.41
2023-04-14T07:30:27.114Z,7.44
2023-04-14T07:31:27.061Z,7.47
2023-04-14T07:32:27.073Z,7.52
2023-04-14T07:33:27.134Z,7.57
2023-04-14T07:34:27.018Z,7.57
2023-04-14T07:35:27.063Z,7.58
2023-04-14T07:36:27.004Z,7.60
2023-04-14T07:37:27.036Z,7.62
2023-04-14T07:38:26.986Z,7.66
2023-04-14T07:39:26.956Z,7.67
2023-04-14T07:40:26.953Z,7.69
2023-04-14T07:41:26.945Z,7.71
2023-04-14T07:42:27.230Z,7.71
2023-04-14T07:43:26.975Z,7.76
2023-04-14T07:44:26.968Z,7.77
2023-04-14T07:45:26.908Z,7.79
2023-04-14T07:46:26.984Z,7.84
2023-04-14T07:47:26.903Z,7.86
2023-04-14T07:48:27.881Z,7.89
2023-04-14T07:49:26.863Z,7.92
2023-04-14T07:50:27.040Z,7.95
2023-04-14T07:51:26.835Z,8.02
2023-04-14T07:52:26.826Z,8.09
2023-04-14T07:53:26.839Z,8.14
2023-04-14T07:54:26.809Z,8.21
2023-04-14T07:55:27.554Z,8.28
2023-04-14T07:56:26.781Z,8.34
2023-04-14T07:57:26.781Z,8.37
2023-04-14T07:58:29.073Z,8.42
2023-04-14T07:59:26.768Z,8.46
2023-04-14T08:00:26.745Z,8.47
2023-04-14T08:01:26.746Z,8.52
2023-04-14T08:02:26.814Z,8.58
2023-04-14T08:03:26.967Z,8.63
2023-04-14T08:04:26.796Z,8.65
2023-04-14T08:05:26.727Z,8.71
2023-04-14T08:06:28.669Z,8.75
2023-04-14T08:07:26.663Z,8.79
2023-04-14T08:08:26.670Z,8.82
2023-04-14T08:09:27.409Z,8.86
2023-04-14T08:10:26.669Z,8.89
2023-04-14T08:11:26.630Z,8.94
2023-04-14T08:12:26.623Z,8.97
2023-04-14T08:13:26.600Z,9.01
2023-04-14T08:14:26.591Z,9.04
2023-04-14T08:15:26.568Z,9.06
2023-04-14T08:16:26.682Z,9.10
2023-04-14T08:17:26.599Z,9.13
2023-04-14T08:18:26.551Z,9.15
2023-04-14T08:19:26.534Z,9.16
2023-04-14T08:20:26.530Z,9.17
2023-04-14T08:21:26.509Z,9.17
2023-04-14T08:22:26.500Z,9.20
2023-04-14T08:23:26.505Z,9.26
2023-04-14T08:24:26.525Z,9.27
2023-04-14T08:25:26.478Z,9.31
2023-04-14T08:26:26.481Z,9.32
2023-04-14T08:27:26.461Z,9.38
2023-04-14T08:28:26.445Z,9.40
2023-04-14T08:29:26.433Z,9.40
2023-04-14T08:30:26.422Z,9.42
2023-04-14T08:31:26.495Z,9.42
2023-04-14T08:32:28.607Z,9.44
2023-04-14T08:33:26.400Z,9.48
2023-04-14T08:34:28.432Z,9.50
2023-04-14T08:35:39.386Z,9.55
2023-04-14T08:36:27.370Z,9.56
2023-04-14T08:37:26.338Z,9.58
2023-04-14T08:38:26.619Z,9.59
2023-04-14T08:39:26.310Z,9.60
2023-04-14T08:40:26.320Z,9.60
2023-04-14T08:41:26.583Z,9.62
2023-04-14T08:42:26.295Z,9.62
2023-04-14T08:43:26.295Z,9.67
2023-04-14T08:44:26.365Z,9.67
2023-04-14T08:45:26.293Z,9.67
2023-04-14T08:46:26.334Z,9.67
2023-04-14T08:47:26.275Z,9.71
2023-04-14T08:48:26.258Z,9.71
2023-04-14T08:49:26.232Z,9.71
2023-04-14T08:50:26.231Z,9.73
2023-04-14T08:51:26.985Z,9.73
2023-04-14T08:52:26.202Z,9.71
2023-04-14T08:53:26.197Z,9.75
2023-04-14T08:54:26.171Z,9.75
2023-04-14T08:55:26.166Z,9.78
2023-04-14T08:56:26.175Z,9.80
2023-04-14T08:57:26.192Z,9.85
2023-04-14T08:58:27.072Z,9.88
2023-04-14T08:59:26.114Z,9.92
2023-04-14T09:00:26.096Z,9.95
2023-04-14T09:01:26.139Z,9.96
2023-04-14T09:02:26.155Z,9.98
2023-04-14T09:03:26.282Z,9.99
2023-04-14T09:04:26.262Z,10.01
2023-04-14T09:05:26.050Z,10.06
2023-04-14T09:06:26.045Z,10.09
2023-04-14T09:07:26.575Z,10.11
2023-04-14T09:08:26.015Z,10.16
2023-04-14T09:09:26.021Z,10.20
2023-04-14T09:10:26.007Z,10.24
2023-04-14T09:11:26.000Z,10.29
2023-04-14T09:12:25.996Z,10.36
2023-04-14T09:13:25.973Z,10.43
2023-04-14T09:14:25.960Z,10.49
2023-04-14T09:15:25.939Z,10.52
2023-04-14T09:16:26.238Z,10.55
2023-04-14T09:17:25.964Z,10.58
2023-04-14T09:18:25.919Z,10.62
2023-04-14T09:19:25.911Z,10.66
2023-04-14T09:20:38.813Z,10.70
2023-04-14T09:21:49.686Z,10.73
2023-04-14T09:22:26.878Z,10.73
2023-04-14T09:23:25.869Z,10.75
2023-04-14T09:24:25.845Z,10.78
2023-04-14T09:25:25.842Z,10.78
2023-04-14T09:26:25.823Z,10.78
2023-04-14T09:27:25.804Z,10.76
2023-04-14T09:28:25.867Z,10.81
2023-04-14T09:29:25.793Z,10.86
2023-04-14T09:30:25.804Z,10.88
2023-04-14T09:31:25.824Z,10.93
2023-04-14T09:32:25.962Z,10.94
2023-04-14T09:33:25.753Z,10.98
2023-04-14T09:34:25.809Z,11.03
2023-04-14T09:35:25.738Z,11.09
2023-04-14T09:36:25.753Z,11.12
2023-04-14T09:37:25.717Z,11.16
2023-04-14T09:38:25.699Z,11.19
2023-04-14T09:39:25.698Z,11.20
2023-04-14T09:40:25.694Z,11.24
2023-04-14T09:41:25.682Z,11.28
2023-04-14T09:42:25.653Z,11.33
2023-04-14T09:43:25.647Z,11.39
2023-04-14T09:44:26.324Z,11.45
2023-04-14T09:45:25.632Z,11.53
2023-04-14T09:46:25.657Z,11.57
2023-04-14T09:47:25.622Z,11.62
2023-04-14T09:48:25.660Z,11.62
2023-04-14T09:49:25.578Z,11.64
2023-04-14T09:50:27.003Z,11.67
2023-04-14T09:51:25.579Z,11.67
2023-04-14T09:52:25.560Z,11.69
2023-04-14T09:53:25.540Z,11.66
2023-04-14T09:54:25.539Z,11.63
2023-04-14T09:55:25.528Z,11.62
2023-04-14T09:56:25.781Z,11.62
2023-04-14T09:57:25.487Z,11.67
2023-04-14T09:58:28.267Z,11.72
2023-04-14T09:59:25.487Z,11.79
2023-04-14T10:00:25.466Z,11.85
2023-04-14T10:01:25.769Z,11.93
2023-04-14T10:02:25.545Z,11.97
2023-04-14T10:03:25.591Z,12.01
2023-04-14T10:04:25.468Z,12.05
2023-04-14T10:05:25.406Z,12.07
2023-04-14T10:06:25.420Z,12.07
2023-04-14T10:07:25.381Z,12.16
2023-04-14T10:08:25.632Z,12.22
2023-04-14T10:09:25.374Z,12.26
2023-04-14T10:10:25.347Z,12.30
2023-04-14T10:11:25.351Z,12.38
2023-04-14T10:12:25.327Z,12.46
2023-04-14T10:13:25.351Z,12.54
2023-04-14T10:14:25.315Z,12.62
2023-04-14T10:15:25.347Z,12.66
2023-04-14T10:16:25.386Z,12.67
2023-04-14T10:17:27.143Z,12.71
2023-04-14T10:18:25.260Z,12.74
2023-04-14T10:19:25.279Z,12.80
2023-04-14T10:20:25.468Z,12.88
2023-04-14T10:21:25.236Z,12.95
2023-04-14T10:22:25.240Z,13.01
2023-04-14T10:23:25.512Z,13.04
2023-04-14T10:24:25.214Z,13.06
2023-04-14T10:25:25.209Z,13.04
2023-04-14T10:26:25.200Z,13.03
2023-04-14T10:27:25.180Z,12.98
2023-04-14T10:28:25.169Z,13.04
2023-04-14T10:29:25.434Z,13.10
2023-04-14T10:30:25.158Z,13.14
2023-04-14T10:31:25.229Z,13.19
2023-04-14T10:32:25.142Z,13.19
2023-04-14T10:33:25.126Z,13.25
2023-04-14T10:34:25.088Z,13.32
2023-04-14T10:35:25.089Z,13.31
2023-04-14T10:36:25.106Z,13.31
2023-04-14T10:37:25.100Z,13.31
2023-04-14T10:38:25.071Z,13.29
2023-04-14T10:39:25.068Z,13.32
2023-04-14T10:40:25.084Z,13.38
2023-04-14T10:41:25.040Z,13.44
2023-04-14T10:42:25.065Z,13.43
2023-04-14T10:43:25.004Z,13.41
2023-04-14T10:44:24.997Z,13.29
2023-04-14T10:45:25.051Z,13.25
2023-04-14T10:46:25.002Z,13.24
2023-04-14T10:47:25.221Z,13.28
2023-04-14T10:48:24.948Z,13.32
2023-04-14T10:49:24.962Z,13.35
2023-04-14T10:50:24.997Z,13.35
2023-04-14T10:51:24.923Z,13.36
2023-04-14T10:52:25.072Z,13.43
2023-04-14T10:53:24.906Z,13.50
2023-04-14T10:54:24.883Z,13.57
2023-04-14T10:55:24.881Z,13.63
2023-04-14T10:56:24.862Z,13.66
2023-04-14T10:57:24.902Z,13.66
2023-04-14T10:58:24.844Z,13.65
2023-04-14T10:59:24.837Z,13.66
2023-04-14T11:00:24.824Z,13.66
2023-04-14T11:01:24.827Z,13.66
2023-04-14T11:02:24.931Z,13.68
2023-04-14T11:03:27.464Z,13.68
2023-04-14T11:04:24.916Z,13.71
2023-04-14T11:05:25.032Z,13.71
2023-04-14T11:06:24.766Z,13.72
2023-04-14T11:07:24.738Z,13.76
2023-04-14T11:08:25.087Z,13.80
2023-04-14T11:09:24.735Z,13.86
2023-04-14T11:10:25.493Z,13.90
2023-04-14T11:11:24.710Z,13.94
2023-04-14T11:12:24.701Z,13.94
2023-04-14T11:13:24.676Z,13.94
2023-04-14T11:14:24.668Z,13.93
2023-04-14T11:15:24.963Z,13.94
2023-04-14T11:16:25.235Z,13.99
2023-04-14T11:17:24.695Z,14.05
2023-04-14T11:18:24.652Z,14.19
2023-04-14T11:19:24.627Z,14.13
2023-04-14T11:20:24.620Z,14.05
2023-04-14T11:21:24.602Z,14.05
2023-04-14T11:22:24.614Z,14.09
2023-04-14T11:23:24.578Z,14.20
2023-04-14T11:24:24.827Z,14.27
2023-04-14T11:25:25.185Z,14.29
2023-04-14T11:26:24.552Z,14.34
2023-04-14T11:27:24.549Z,14.35
2023-04-14T11:28:24.533Z,14.34
2023-04-14T11:29:24.540Z,14.35
2023-04-14T11:30:24.523Z,14.38
2023-04-14T11:31:24.853Z,14.36
2023-04-14T11:32:24.695Z,14.38
2023-04-14T11:33:24.484Z,14.39
2023-04-14T11:34:24.461Z,14.41
2023-04-14T11:35:24.461Z,14.39
2023-04-14T11:36:24.438Z,14.38
2023-04-14T11:37:24.422Z,14.35
2023-04-14T11:38:24.557Z,14.34
2023-04-14T11:39:24.391Z,14.36
2023-04-14T11:40:24.401Z,14.31
2023-04-14T11:41:24.398Z,14.27
2023-04-14T11:42:24.357Z,14.19
2023-04-14T11:43:24.476Z,14.11
2023-04-14T11:44:24.353Z,14.05
2023-04-14T11:45:24.329Z,14.04
2023-04-14T11:46:24.368Z,14.02
2023-04-14T11:47:24.644Z,14.06
2023-04-14T11:48:24.292Z,14.11
2023-04-14T11:49:24.318Z,14.21
2023-04-14T11:50:24.309Z,14.27
2023-04-14T11:51:24.286Z,14.35
2023-04-14T11:52:24.257Z,14.42
2023-04-14T11:53:24.267Z,14.44
2023-04-14T11:54:24.275Z,14.42
2023-04-14T11:55:24.230Z,14.45
2023-04-14T11:56:24.257Z,14.48
2023-04-14T11:57:24.220Z,14.48
2023-04-14T11:58:24.206Z,14.54
2023-04-14T11:59:24.186Z,14.67
2023-04-14T12:00:24.174Z,14.85
2023-04-14T12:01:24.991Z,15.05
2023-04-14T12:02:24.273Z,15.25
2023-04-14T12:03:24.347Z,15.46
2023-04-14T12:04:24.373Z,15.60
2023-04-14T12:05:24.206Z,15.64
2023-04-14T12:06:24.121Z,15.60
2023-04-14T12:07:24.145Z,15.59
2023-04-14T12:08:24.096Z,15.52
2023-04-14T12:09:24.853Z,15.33
2023-04-14T12:10:24.085Z,15.16
2023-04-14T12:11:24.051Z,15.03
2023-04-14T12:12:24.080Z,14.93
2023-04-14T12:13:24.063Z,14.87
2023-04-14T12:14:25.380Z,14.86
2023-04-14T12:15:24.015Z,14.85
2023-04-14T12:16:24.061Z,14.87
2023-04-14T12:17:24.043Z,14.87
2023-04-14T12:18:24.054Z,14.93
2023-04-14T12:19:24.006Z,14.87
2023-04-14T12:20:23.957Z,14.90
2023-04-14T12:21:23.974Z,14.93
2023-04-14T12:22:24.023Z,15.91
2023-04-14T12:23:23.970Z,16.80
2023-04-14T12:24:23.918Z,17.60
2023-04-14T12:25:23.931Z,18.44
2023-04-14T12:26:23.892Z,19.12
2023-04-14T12:27:23.961Z,19.72
2023-04-14T12:28:24.206Z,20.05
2023-04-14T12:29:23.882Z,19.32
2023-04-14T12:30:23.851Z,19.58
2023-04-14T12:31:23.881Z,18.79
2023-04-14T12:32:23.846Z,18.21
2023-04-14T12:33:25.592Z,17.74
2023-04-14T12:34:23.831Z,17.36
2023-04-14T12:35:23.827Z,17.09
2023-04-14T12:36:27.416Z,16.95
2023-04-14T12:37:24.784Z,17.00
2023-04-14T12:38:24.045Z,16.95
2023-04-14T12:39:23.977Z,16.87
2023-04-14T12:40:23.751Z,17.38
2023-04-14T12:41:23.763Z,18.74
2023-04-14T12:42:23.732Z,20.23
2023-04-14T12:43:23.734Z,21.52
2023-04-14T12:44:23.996Z,22.46
2023-04-14T12:45:23.705Z,23.21
2023-04-14T12:46:23.700Z,22.93
2023-04-14T12:47:23.719Z,21.89
2023-04-14T12:48:23.670Z,21.53
2023-04-14T12:49:23.941Z,20.79
2023-04-14T12:50:23.641Z,20.51
2023-04-14T12:51:23.639Z,21.12
2023-04-14T12:52:23.620Z,22.38
2023-04-14T12:53:23.642Z,23.39
2023-04-14T12:54:23.679Z,24.04
2023-04-14T12:55:23.581Z,24.64
2023-04-14T12:56:23.579Z,25.34
2023-04-14T12:57:23.566Z,25.93
2023-04-14T12:58:23.553Z,26.41
2023-04-14T12:59:23.563Z,26.88
2023-04-14T13:00:23.542Z,27.13
2023-04-14T13:01:24.363Z,27.27
2023-04-14T13:02:23.683Z,27.46
2023-04-14T13:03:23.664Z,27.52
2023-04-14T13:04:23.546Z,27.52
2023-04-14T13:05:23.764Z,27.83
2023-04-14T13:06:23.480Z,28.11
2023-04-14T13:07:23.488Z,28.20
2023-04-14T13:08:23.457Z,28.46
2023-04-14T13:09:23.456Z,28.70
2023-04-14T13:10:23.449Z,28.64